createdAt,value
2019-02-15T00:00:58.857Z,99.90
2019-02-15T00:07:49.409Z,99.90
2019-02-15T00:10:46.668Z,99.90
2019-02-15T00:17:56.864Z,99.90
2019-02-15T00:27:45.825Z,99.90
2019-02-15T00:31:07.484Z,99.90
2019-02-15T00:34:35.945Z,99.90
2019-02-15T00:37:53.545Z,99.90
2019-02-15T00:40:53.320Z,99.90
2019-02-15T00:43:42.611Z,99.90
2019-02-15T00:47:17.954Z,99.90
2019-02-15T00:50:22.530Z,99.90
2019-02-15T00:53:43.977Z,99.90
2019-02-15T00:56:54.518Z,99.90
2019-02-15T01:00:17.457Z,99.90
2019-02-15T01:06:33.336Z,99.90
2019-02-15T01:09:45.555Z,99.90
2019-02-15T01:12:39.337Z,99.90
2019-02-15T01:19:25.010Z,99.90
2019-02-15T01:22:14.236Z,99.90
2019-02-15T01:25:27.655Z,99.90
2019-02-15T01:28:11.688Z,99.90
2019-02-15T01:31:36.888Z,99.90
2019-02-15T01:34:43.345Z,99.90
2019-02-15T01:37:42.814Z,99.90
2019-02-15T01:41:04.699Z,99.90
2019-02-15T01:47:03.721Z,99.90
2019-02-15T01:53:24.820Z,99.90
2019-02-15T01:56:34.191Z,99.90
2019-02-15T01:59:46.337Z,99.90
2019-02-15T02:02:08.363Z,99.90
2019-02-15T02:05:05.874Z,99.90
2019-02-15T02:08:20.544Z,99.90
2019-02-15T02:17:36.168Z,99.90
2019-02-15T02:20:13.939Z,99.90
2019-02-15T02:23:02.547Z,99.90
2019-02-15T02:25:39.546Z,99.90
2019-02-15T02:28:28.518Z,99.90
2019-02-15T02:31:12.079Z,99.90
2019-02-15T02:34:03.715Z,99.90
2019-02-15T02:40:26.360Z,99.90
2019-02-15T02:43:23.843Z,99.90
2019-02-15T02:47:02.830Z,99.90
2019-02-15T02:49:55.271Z,99.90
2019-02-15T02:56:16.303Z,99.90
2019-02-15T02:59:13.910Z,99.90
2019-02-15T03:02:22.629Z,99.90
2019-02-15T03:08:46.427Z,99.90
2019-02-15T03:11:27.671Z,99.90
2019-02-15T03:18:31.196Z,99.90
2019-02-15T03:25:07.459Z,99.90
2019-02-15T03:31:38.145Z,99.90
2019-02-15T03:34:14.487Z,99.90
2019-02-15T03:37:27.922Z,99.90
2019-02-15T03:40:19.544Z,99.90
2019-02-15T03:43:11.370Z,99.90
2019-02-15T03:49:41.498Z,99.90
2019-02-15T03:52:49.526Z,99.90
2019-02-15T03:58:52.534Z,99.90
2019-02-15T04:02:18.437Z,99.90
2019-02-15T04:05:08.764Z,99.90
2019-02-15T04:07:44.680Z,99.90
2019-02-15T04:10:27.678Z,99.90
2019-02-15T04:13:49.164Z,99.90
2019-02-15T04:17:05.463Z,99.90
2019-02-15T04:26:57.613Z,99.90
2019-02-15T04:29:33.230Z,99.90
2019-02-15T04:32:20.271Z,99.90
2019-02-15T04:38:35.832Z,99.90
2019-02-15T04:41:05.681Z,99.90
2019-02-15T04:44:18.270Z,99.90
2019-02-15T04:47:32.333Z,99.90
2019-02-15T04:50:42.107Z,99.90
2019-02-15T04:56:57.401Z,99.90
2019-02-15T05:03:03.157Z,99.90
2019-02-15T05:11:16.905Z,99.90
2019-02-15T05:12:22.628Z,99.90
2019-02-15T05:15:16.380Z,99.90
2019-02-15T05:17:52.677Z,99.90
2019-02-15T05:20:22.466Z,99.90
2019-02-15T05:22:52.221Z,99.90
2019-02-15T05:25:22.046Z,99.90
2019-02-15T05:27:57.690Z,99.90
2019-02-15T05:30:27.477Z,99.90
2019-02-15T05:32:57.295Z,99.90
2019-02-15T05:35:27.050Z,99.90
2019-02-15T05:37:57.909Z,99.90
2019-02-15T05:40:31.083Z,99.90
2019-02-15T05:43:03.150Z,99.90
2019-02-15T05:45:36.111Z,99.90
2019-02-15T05:48:05.908Z,99.90
2019-02-15T05:50:35.869Z,99.90
2019-02-15T05:53:08.834Z,99.90
2019-02-15T05:55:38.693Z,99.90
2019-02-15T06:01:12.831Z,99.90
2019-02-15T06:05:26.808Z,99.90
2019-02-15T06:07:37.553Z,99.90
2019-02-15T06:10:46.341Z,99.90
2019-02-15T06:13:42.475Z,99.90
2019-02-15T06:16:47.123Z,99.90
2019-02-15T06:19:16.927Z,99.90
2019-02-15T06:21:49.567Z,99.90
2019-02-15T06:24:35.155Z,99.90
2019-02-15T06:27:37.919Z,99.90
2019-02-15T06:37:38.294Z,99.90
2019-02-15T06:40:22.832Z,99.90
2019-02-15T06:43:52.290Z,99.90
2019-02-15T06:50:34.473Z,99.90
2019-02-15T06:57:14.213Z,99.90
2019-02-15T07:01:05.594Z,99.90
2019-02-15T07:06:44.329Z,99.90
2019-02-15T07:09:06.740Z,99.90
2019-02-15T07:11:42.300Z,99.90
2019-02-15T07:15:38.603Z,99.90
2019-02-15T07:17:06.872Z,99.90
2019-02-15T07:19:43.713Z,99.90
2019-02-15T07:22:25.439Z,99.90
2019-02-15T07:25:16.895Z,99.90
2019-02-15T07:28:13.476Z,99.90
2019-02-15T07:31:03.114Z,99.90
2019-02-15T07:34:21.877Z,99.90
2019-02-15T07:37:07.444Z,99.90
2019-02-15T07:43:16.933Z,99.90
2019-02-15T07:45:53.897Z,99.90
2019-02-15T07:56:07.719Z,99.90
2019-02-15T07:58:57.287Z,99.90
2019-02-15T08:01:46.717Z,99.90
2019-02-15T08:04:37.543Z,99.90
2019-02-15T08:07:07.690Z,99.90
2019-02-15T08:09:40.981Z,99.90
2019-02-15T08:12:16.731Z,99.90
2019-02-15T08:14:58.225Z,99.90
2019-02-15T08:18:14.901Z,99.90
2019-02-15T08:20:08.754Z,99.90
2019-02-15T08:22:48.772Z,99.90
2019-02-15T08:25:19.036Z,99.90
2019-02-15T08:27:54.320Z,99.90
2019-02-15T08:30:47.332Z,99.90
2019-02-15T08:33:18.213Z,99.80
2019-02-15T08:35:55.733Z,99.70
2019-02-15T08:38:31.709Z,99.90
2019-02-15T08:41:06.445Z,99.90
2019-02-15T08:43:41.211Z,99.70
2019-02-15T08:46:18.301Z,99.20
2019-02-15T08:49:03.832Z,99.10
2019-02-15T08:55:32.699Z,99.20
2019-02-15T08:58:07.068Z,98.90
2019-02-15T09:00:48.372Z,99.10
2019-02-15T09:03:18.773Z,98.80
2019-02-15T09:05:51.967Z,98.70
2019-02-15T09:08:30.170Z,98.50
2019-02-15T09:11:33.470Z,98.30
2019-02-15T09:14:07.036Z,98.30
2019-02-15T09:16:51.577Z,98.30
2019-02-15T09:19:37.423Z,98.10
2019-02-15T09:22:14.766Z,98.10
2019-02-15T09:25:00.417Z,97.20
2019-02-15T09:27:43.087Z,97.50
2019-02-15T09:30:28.109Z,97.30
2019-02-15T09:33:22.563Z,97.30
2019-02-15T09:36:02.359Z,96.50
2019-02-15T09:38:34.192Z,96.50
2019-02-15T09:41:13.768Z,96.10
2019-02-15T09:43:57.118Z,96.30
2019-02-15T09:46:32.434Z,95.70
2019-02-15T09:49:20.041Z,95.70
2019-02-15T09:52:02.477Z,95.50
2019-02-15T09:54:38.248Z,95.40
2019-02-15T09:57:20.491Z,96.00
2019-02-15T10:00:05.035Z,95.70
2019-02-15T10:02:40.512Z,95.90
2019-02-15T10:05:14.106Z,95.80
2019-02-15T10:07:47.096Z,95.80
2019-02-15T10:10:32.352Z,95.10
2019-02-15T10:13:23.060Z,95.40
2019-02-15T10:16:03.410Z,94.80
2019-02-15T10:18:40.797Z,95.00
2019-02-15T10:21:21.777Z,95.30
2019-02-15T10:23:50.496Z,94.60
2019-02-15T10:26:27.085Z,94.80
2019-02-15T10:29:00.735Z,94.40
2019-02-15T10:31:40.377Z,93.90
2019-02-15T10:34:16.823Z,93.70
2019-02-15T10:37:04.045Z,93.60
2019-02-15T10:40:27.552Z,92.60
2019-02-15T10:46:51.810Z,93.60
2019-02-15T10:49:27.145Z,93.00
2019-02-15T10:52:00.466Z,92.60
2019-02-15T10:54:33.871Z,91.40
2019-02-15T10:57:22.845Z,91.60
2019-02-15T11:00:21.843Z,91.70
2019-02-15T11:02:51.064Z,92.60
2019-02-15T11:05:18.981Z,91.40
2019-02-15T11:07:59.624Z,92.00
2019-02-15T11:10:56.891Z,91.60
2019-02-15T11:13:11.870Z,92.10
2019-02-15T11:15:44.987Z,91.70
2019-02-15T11:18:58.781Z,91.50
2019-02-15T11:21:33.075Z,91.90
2019-02-15T11:27:42.687Z,90.80
2019-02-15T11:30:16.338Z,91.30
2019-02-15T11:32:56.213Z,90.20
2019-02-15T11:35:30.906Z,89.90
2019-02-15T11:38:05.947Z,89.60
2019-02-15T11:40:49.009Z,90.20
2019-02-15T11:43:18.890Z,88.80
2019-02-15T11:46:00.362Z,89.60
2019-02-15T11:50:23.195Z,88.20
2019-02-15T11:51:11.773Z,88.70
2019-02-15T11:53:48.964Z,88.70
2019-02-15T11:56:25.388Z,89.10
2019-02-15T11:58:59.398Z,86.70
2019-02-15T12:01:40.348Z,85.90
2019-02-15T12:04:13.385Z,84.90
2019-02-15T12:07:41.173Z,83.30
2019-02-15T12:13:32.324Z,78.60
2019-02-15T12:16:04.933Z,80.70
2019-02-15T12:18:37.849Z,77.80
2019-02-15T12:21:10.101Z,76.80
2019-02-15T12:23:54.338Z,77.60
2019-02-15T12:26:20.089Z,82.60
2019-02-15T12:28:55.078Z,76.90
2019-02-15T12:31:25.403Z,77.60
2019-02-15T12:33:57.216Z,77.50
2019-02-15T12:36:27.151Z,78.00
2019-02-15T12:39:02.259Z,80.20
2019-02-15T12:41:34.998Z,76.20
2019-02-15T12:44:07.897Z,75.50
2019-02-15T12:46:40.735Z,75.70
2019-02-15T12:49:10.672Z,75.70
2019-02-15T12:51:49.271Z,76.70
2019-02-15T12:54:20.717Z,73.60
2019-02-15T12:56:55.577Z,74.30
2019-02-15T12:59:27.388Z,73.50
2019-02-15T13:02:00.595Z,74.50
2019-02-15T13:04:37.654Z,74.20
2019-02-15T13:07:09.882Z,73.50
2019-02-15T13:09:41.028Z,73.40
2019-02-15T13:12:11.252Z,71.30
2019-02-15T13:14:44.792Z,72.70
2019-02-15T13:17:14.161Z,73.20
2019-02-15T13:19:47.361Z,73.30
2019-02-15T13:22:20.149Z,70.60
2019-02-15T13:24:59.275Z,72.40
2019-02-15T13:27:35.615Z,72.90
2019-02-15T13:30:06.320Z,72.50
2019-02-15T13:32:36.569Z,73.20
2019-02-15T13:35:14.079Z,73.00
2019-02-15T13:37:50.596Z,72.00
2019-02-15T13:40:28.031Z,74.10
2019-02-15T13:43:03.186Z,72.50
2019-02-15T13:45:33.485Z,73.10
2019-02-15T13:48:06.216Z,74.00
2019-02-15T13:50:55.794Z,73.40
2019-02-15T13:53:33.692Z,75.00
2019-02-15T13:56:06.156Z,76.20
2019-02-15T13:58:41.339Z,76.80
2019-02-15T14:01:11.379Z,74.30
2019-02-15T14:03:44.620Z,72.30
2019-02-15T14:06:15.081Z,72.90
2019-02-15T14:08:49.921Z,72.50
2019-02-15T14:11:21.414Z,73.20
2019-02-15T14:13:55.336Z,74.10
2019-02-15T14:16:25.847Z,75.10
2019-02-15T14:18:56.962Z,74.80
2019-02-15T14:21:29.286Z,75.20
2019-02-15T14:24:03.786Z,75.80
2019-02-15T14:26:35.389Z,75.00
2019-02-15T14:29:20.917Z,75.90
2019-02-15T14:31:49.035Z,76.50
2019-02-15T14:34:46.909Z,76.10
2019-02-15T14:37:23.186Z,77.00
2019-02-15T14:39:57.721Z,77.00
2019-02-15T14:42:30.399Z,78.30
2019-02-15T14:49:49.962Z,79.60
2019-02-15T14:52:40.924Z,78.30
2019-02-15T14:55:45.739Z,79.20
2019-02-15T14:59:08.070Z,80.50
2019-02-15T15:02:30.579Z,81.60
2019-02-15T15:05:04.241Z,82.50
2019-02-15T15:13:17.247Z,81.30
2019-02-15T15:14:28.623Z,82.10
2019-02-15T15:17:04.197Z,81.90
2019-02-15T15:19:38.644Z,82.50
2019-02-15T15:22:17.297Z,83.70
2019-02-15T15:24:49.815Z,84.50
2019-02-15T15:27:19.603Z,85.60
2019-02-15T15:29:50.468Z,86.20
2019-02-15T15:32:20.563Z,87.20
2019-02-15T15:34:50.425Z,88.40
2019-02-15T15:37:23.872Z,89.10
2019-02-15T15:39:57.757Z,90.20
2019-02-15T15:42:27.505Z,90.20
2019-02-15T15:44:57.743Z,90.60
2019-02-15T15:47:27.553Z,90.90
2019-02-15T15:49:57.355Z,91.10
2019-02-15T15:52:27.303Z,91.20
2019-02-15T15:54:59.227Z,91.40
2019-02-15T15:57:29.052Z,91.80
2019-02-15T15:59:58.931Z,92.10
2019-02-15T16:02:29.120Z,92.30
2019-02-15T16:05:02.084Z,92.50
2019-02-15T16:07:31.812Z,92.60
2019-02-15T16:10:01.491Z,92.60
2019-02-15T16:12:34.231Z,92.70
2019-02-15T16:15:04.458Z,93.00
2019-02-15T16:17:36.813Z,93.30
2019-02-15T16:20:07.591Z,93.30
2019-02-15T16:22:37.332Z,93.40
2019-02-15T16:25:07.215Z,93.60
2019-02-15T16:27:36.898Z,93.50
2019-02-15T16:30:07.295Z,93.40
2019-02-15T16:32:38.443Z,93.40
2019-02-15T16:35:29.925Z,93.70
2019-02-15T16:38:00.409Z,93.80
2019-02-15T16:40:31.452Z,93.80
2019-02-15T16:43:01.496Z,94.00
2019-02-15T16:45:31.418Z,94.20
2019-02-15T16:48:06.572Z,94.20
2019-02-15T16:51:41.506Z,94.20
2019-02-15T16:54:11.445Z,94.10
2019-02-15T16:56:42.680Z,94.30
2019-02-15T16:59:17.079Z,94.80
2019-02-15T17:01:59.097Z,95.10
2019-02-15T17:04:30.244Z,95.50
2019-02-15T17:07:01.833Z,95.70
2019-02-15T17:09:31.688Z,95.90
2019-02-15T17:12:01.595Z,96.10
2019-02-15T17:14:31.526Z,96.10
2019-02-15T17:17:01.269Z,96.30
2019-02-15T17:19:31.120Z,96.60
2019-02-15T17:22:00.989Z,96.90
2019-02-15T17:24:32.047Z,97.00
2019-02-15T17:27:03.211Z,97.10
2019-02-15T17:29:33.080Z,97.10
2019-02-15T17:32:05.803Z,97.10
2019-02-15T17:34:35.700Z,96.90
2019-02-15T17:38:49.096Z,96.80
2019-02-15T17:41:03.216Z,96.40
2019-02-15T17:43:38.778Z,96.50
2019-02-15T17:46:14.060Z,96.30
2019-02-15T17:49:03.407Z,96.20
2019-02-15T17:54:32.440Z,96.10
2019-02-15T17:57:05.187Z,96.00
2019-02-15T17:59:40.370Z,96.10
2019-02-15T18:02:10.046Z,95.80
2019-02-15T18:04:39.831Z,95.70
2019-02-15T18:07:09.686Z,95.50
2019-02-15T18:09:39.464Z,95.40
2019-02-15T18:12:09.384Z,95.30
2019-02-15T18:14:39.411Z,95.20
2019-02-15T18:17:13.526Z,95.30
2019-02-15T18:19:47.510Z,95.60
2019-02-15T18:22:19.061Z,95.60
2019-02-15T18:29:29.637Z,95.60
2019-02-15T18:37:37.807Z,94.90
2019-02-15T18:40:14.855Z,94.80
2019-02-15T18:42:44.573Z,94.90
2019-02-15T18:45:32.125Z,95.20
2019-02-15T18:48:04.630Z,95.20
2019-02-15T18:50:37.788Z,95.10
2019-02-15T18:53:30.792Z,94.60
2019-02-15T18:56:06.732Z,94.60
2019-02-15T18:58:53.518Z,94.40
2019-02-15T19:01:21.215Z,94.60
2019-02-15T19:03:55.545Z,94.20
2019-02-15T19:09:52.862Z,94.10
2019-02-15T19:16:42.014Z,93.90
2019-02-15T19:19:52.947Z,93.90
2019-02-15T19:28:54.080Z,94.10
2019-02-15T19:30:32.091Z,93.90
2019-02-15T19:33:26.103Z,94.00
2019-02-15T19:37:00.049Z,93.80
2019-02-15T19:39:51.480Z,93.50
2019-02-15T19:42:52.600Z,93.30
2019-02-15T19:45:49.561Z,93.20
2019-02-15T19:49:17.300Z,93.30
2019-02-15T19:52:07.794Z,93.40
2019-02-15T19:54:41.264Z,93.30
2019-02-15T19:57:13.520Z,93.30
2019-02-15T19:59:53.176Z,93.30
2019-02-15T20:02:53.115Z,93.40
2019-02-15T20:05:56.268Z,93.20
2019-02-15T20:08:28.126Z,93.40
2019-02-15T20:11:00.524Z,93.30
2019-02-15T20:13:30.864Z,93.40
2019-02-15T20:16:00.627Z,93.60
2019-02-15T20:18:30.494Z,93.80
2019-02-15T20:21:00.375Z,93.80
2019-02-15T20:23:30.519Z,93.70
2019-02-15T20:26:02.785Z,93.60
2019-02-15T20:28:32.602Z,93.70
2019-02-15T20:31:02.489Z,93.40
2019-02-15T20:33:32.240Z,93.40
2019-02-15T20:36:04.206Z,93.40
2019-02-15T20:38:33.970Z,93.30
2019-02-15T20:41:03.739Z,93.20
2019-02-15T20:43:33.613Z,93.30
2019-02-15T20:46:03.405Z,93.30
2019-02-15T20:49:04.756Z,93.30
2019-02-15T20:51:52.346Z,93.10
2019-02-15T20:54:36.582Z,93.20
2019-02-15T20:57:17.904Z,93.30
2019-02-15T21:00:31.370Z,93.30
2019-02-15T21:03:02.433Z,93.40
2019-02-15T21:06:10.398Z,93.70
2019-02-15T21:08:58.038Z,93.80
2019-02-15T21:14:32.917Z,93.70
2019-02-15T21:15:54.291Z,93.70
2019-02-15T21:19:19.607Z,93.50
2019-02-15T21:22:03.329Z,93.30
2019-02-15T21:24:38.865Z,93.30
2019-02-15T21:27:08.682Z,93.30
2019-02-15T21:29:38.441Z,93.30
2019-02-15T21:32:08.303Z,93.00
2019-02-15T21:34:37.973Z,93.00
2019-02-15T21:37:07.860Z,92.70
2019-02-15T21:39:37.719Z,92.50
2019-02-15T21:42:12.619Z,92.70
2019-02-15T21:44:44.003Z,92.50
2019-02-15T21:47:13.812Z,92.40
2019-02-15T21:52:34.043Z,92.60
2019-02-15T21:55:10.876Z,92.90
2019-02-15T21:57:40.807Z,93.00
2019-02-15T22:00:16.246Z,93.10
2019-02-15T22:02:54.419Z,93.10
2019-02-15T22:05:44.981Z,93.90
2019-02-15T22:08:26.522Z,93.90
2019-02-15T22:10:56.388Z,93.80
2019-02-15T22:13:26.209Z,93.40
2019-02-15T22:17:29.604Z,93.50
2019-02-15T22:19:12.297Z,93.30
2019-02-15T22:22:03.559Z,94.30
2019-02-15T22:24:33.523Z,94.50
2019-02-15T22:27:12.427Z,94.30
2019-02-15T22:29:42.207Z,94.60
2019-02-15T22:32:11.937Z,94.70
2019-02-15T22:34:41.644Z,95.10
2019-02-15T22:37:13.062Z,95.60
2019-02-15T22:39:43.026Z,95.90
2019-02-15T22:42:12.850Z,96.10
2019-02-15T22:44:42.566Z,96.30
2019-02-15T22:47:12.586Z,96.30
2019-02-15T22:49:43.541Z,96.40
2019-02-15T22:52:13.346Z,96.40
2019-02-15T22:54:43.346Z,96.40
2019-02-15T22:57:19.070Z,96.40
2019-02-15T22:59:50.518Z,97.30
2019-02-15T23:02:20.573Z,97.70
2019-02-15T23:04:50.590Z,97.70
2019-02-15T23:07:20.475Z,97.70
2019-02-15T23:09:50.421Z,97.30
2019-02-15T23:12:20.394Z,97.50
2019-02-15T23:14:50.414Z,96.90
2019-02-15T23:17:20.256Z,96.70
2019-02-15T23:19:50.168Z,96.90
2019-02-15T23:22:20.033Z,96.90
2019-02-15T23:24:52.686Z,96.90
2019-02-15T23:27:37.296Z,96.90
2019-02-15T23:30:07.214Z,96.80
2019-02-15T23:32:48.703Z,96.20
2019-02-15T23:35:18.934Z,95.60
2019-02-15T23:37:48.687Z,97.10
2019-02-15T23:40:18.409Z,97.80
2019-02-15T23:42:50.511Z,98.30
2019-02-15T23:45:20.681Z,98.40
2019-02-15T23:47:50.743Z,98.90
2019-02-15T23:50:20.541Z,99.20
2019-02-15T23:52:52.640Z,99.30
2019-02-15T23:55:22.379Z,99.90
2019-02-15T23:57:52.161Z,99.90
